createdAt,value
2017-05-09T00:00:11.012Z,0
2017-05-09T00:01:21.364Z,0
2017-05-09T00:02:31.700Z,0
2017-05-09T00:03:42.057Z,0
2017-05-09T00:04:52.404Z,0
2017-05-09T00:06:02.740Z,0
2017-05-09T00:07:13.131Z,0
2017-05-09T00:08:23.482Z,0
2017-05-09T00:09:33.850Z,0
2017-05-09T00:10:44.202Z,0
2017-05-09T00:11:54.547Z,0
2017-05-09T00:13:04.934Z,0
2017-05-09T00:14:14.967Z,0
2017-05-09T00:15:25.303Z,0
2017-05-09T00:16:35.020Z,0
2017-05-09T00:17:45.377Z,0
2017-05-09T00:18:55.734Z,0
2017-05-09T00:20:05.766Z,0
2017-05-09T00:21:15.803Z,0
2017-05-09T00:22:26.168Z,0
2017-05-09T00:23:36.200Z,0
2017-05-09T00:24:46.550Z,0
2017-05-09T00:25:56.599Z,0
2017-05-09T00:27:06.962Z,0
2017-05-09T00:28:17.333Z,0
2017-05-09T00:29:27.379Z,0
2017-05-09T00:30:37.165Z,0
2017-05-09T00:31:47.513Z,0
2017-05-09T00:32:57.910Z,0
2017-05-09T00:34:08.261Z,0
2017-05-09T00:35:18.608Z,0
2017-05-09T00:36:28.999Z,0
2017-05-09T00:37:39.276Z,0
2017-05-09T00:38:49.622Z,0
2017-05-09T00:39:59.654Z,0
2017-05-09T00:41:09.931Z,0
2017-05-09T00:42:20.281Z,0
2017-05-09T00:43:30.616Z,0
2017-05-09T00:44:40.952Z,0
2017-05-09T00:45:51.320Z,0
2017-05-09T00:47:01.365Z,0
2017-05-09T00:48:11.711Z,0
2017-05-09T00:49:22.065Z,0
2017-05-09T00:50:32.127Z,0
2017-05-09T00:51:42.461Z,0
2017-05-09T00:52:52.539Z,0
2017-05-09T00:54:02.925Z,0
2017-05-09T00:55:12.943Z,0
2017-05-09T00:56:22.968Z,0
2017-05-09T00:57:33.315Z,0
2017-05-09T00:58:43.341Z,0
2017-05-09T00:59:53.703Z,0
2017-05-09T01:01:03.751Z,0
2017-05-09T01:02:13.795Z,0
2017-05-09T01:03:23.825Z,0
2017-05-09T01:04:33.865Z,0
2017-05-09T01:05:44.211Z,0
2017-05-09T01:06:54.554Z,0
2017-05-09T01:08:04.589Z,0
2017-05-09T01:09:14.931Z,0
2017-05-09T01:10:25.275Z,0
2017-05-09T01:11:35.624Z,0
2017-05-09T01:12:45.964Z,0
2017-05-09T01:13:56.338Z,0
2017-05-09T01:15:06.370Z,0
2017-05-09T01:16:16.397Z,0
2017-05-09T01:17:26.726Z,0
2017-05-09T01:18:37.080Z,0
2017-05-09T01:19:47.433Z,0
2017-05-09T01:20:57.451Z,0
2017-05-09T01:22:07.798Z,0
2017-05-09T01:23:18.147Z,0
2017-05-09T01:24:28.518Z,0
2017-05-09T01:25:38.550Z,0
2017-05-09T01:26:48.589Z,0
2017-05-09T01:27:58.940Z,0
2017-05-09T01:29:09.343Z,0
2017-05-09T01:30:19.675Z,0
2017-05-09T01:31:29.749Z,0
2017-05-09T01:32:40.087Z,0
2017-05-09T01:33:50.438Z,0
2017-05-09T01:35:00.782Z,0
2017-05-09T01:36:10.505Z,0
2017-05-09T01:37:20.850Z,0
2017-05-09T01:38:31.188Z,0
2017-05-09T01:39:41.544Z,0
2017-05-09T01:40:51.888Z,0
2017-05-09T01:42:01.907Z,0
2017-05-09T01:43:12.287Z,0
2017-05-09T01:44:22.625Z,0
2017-05-09T01:45:32.982Z,0
2017-05-09T01:46:43.319Z,0
2017-05-09T01:47:53.710Z,0
2017-05-09T01:49:03.749Z,0
2017-05-09T01:50:14.102Z,0
2017-05-09T01:51:24.159Z,0
2017-05-09T01:52:33.872Z,0
2017-05-09T01:53:43.897Z,0
2017-05-09T01:54:54.259Z,0
2017-05-09T01:56:04.608Z,0
2017-05-09T01:57:14.959Z,0
2017-05-09T01:58:25.310Z,0
2017-05-09T01:59:35.350Z,0
2017-05-09T02:00:45.692Z,0
2017-05-09T02:01:56.042Z,0
2017-05-09T02:03:06.402Z,0
2017-05-09T02:04:16.739Z,0
2017-05-09T02:05:27.072Z,0
2017-05-09T02:06:37.429Z,0
2017-05-09T02:07:47.764Z,0
2017-05-09T02:08:57.809Z,0
2017-05-09T02:10:08.155Z,0
2017-05-09T02:11:18.510Z,0
2017-05-09T02:12:28.245Z,0
2017-05-09T02:13:38.322Z,0
2017-05-09T02:14:48.674Z,0
2017-05-09T02:15:58.755Z,0
2017-05-09T02:17:09.117Z,0
2017-05-09T02:18:19.510Z,0
2017-05-09T02:19:29.877Z,0
2017-05-09T02:20:39.926Z,0
2017-05-09T02:21:50.317Z,0
2017-05-09T02:23:00.698Z,0
2017-05-09T02:24:11.079Z,0
2017-05-09T02:25:21.425Z,0
2017-05-09T02:26:31.788Z,0
2017-05-09T02:27:42.164Z,0
2017-05-09T02:28:52.230Z,0
2017-05-09T02:30:02.587Z,0
2017-05-09T02:31:12.623Z,0
2017-05-09T02:32:22.995Z,0
2017-05-09T02:33:33.330Z,0
2017-05-09T02:34:43.664Z,0
2017-05-09T02:35:54.000Z,0
2017-05-09T02:37:04.043Z,0
2017-05-09T02:38:14.402Z,0
2017-05-09T02:39:24.430Z,0
2017-05-09T02:40:34.177Z,0
2017-05-09T02:41:44.527Z,0
2017-05-09T02:42:54.555Z,0
2017-05-09T02:44:04.897Z,0
2017-05-09T02:45:14.978Z,0
2017-05-09T02:46:25.333Z,0
2017-05-09T02:47:35.692Z,0
2017-05-09T02:48:45.712Z,0
2017-05-09T02:49:56.055Z,0
2017-05-09T02:51:06.408Z,0
2017-05-09T02:52:16.788Z,0
2017-05-09T02:53:27.130Z,0
2017-05-09T02:54:37.167Z,0
2017-05-09T02:55:47.206Z,0
2017-05-09T02:56:57.233Z,0
2017-05-09T02:58:07.580Z,0
2017-05-09T02:59:17.652Z,0
2017-05-09T03:00:28.012Z,0
2017-05-09T03:01:37.723Z,0
2017-05-09T03:32:53.275Z,28
2017-05-09T03:34:03.311Z,32
2017-05-09T03:35:13.387Z,32
2017-05-09T03:36:23.438Z,28
2017-05-09T03:37:33.783Z,28
2017-05-09T03:38:44.172Z,32
2017-05-09T03:39:54.523Z,32
2017-05-09T03:41:04.855Z,36
2017-05-09T03:42:15.220Z,40
2017-05-09T03:43:25.558Z,40
2017-05-09T03:44:35.590Z,44
2017-05-09T03:45:45.938Z,48
2017-05-09T03:46:55.954Z,56
2017-05-09T03:48:05.982Z,52
2017-05-09T03:49:16.017Z,52
2017-05-09T03:50:26.045Z,52
2017-05-09T03:51:36.086Z,52
2017-05-09T03:52:46.149Z,48
2017-05-09T03:53:56.505Z,48
2017-05-09T03:55:06.828Z,40
2017-05-09T03:56:17.183Z,28
2017-05-09T03:57:27.539Z,28
2017-05-09T03:58:37.886Z,40
2017-05-09T03:59:48.238Z,44
2017-05-09T04:00:58.576Z,48
2017-05-09T04:02:08.597Z,60
2017-05-09T04:03:18.937Z,64
2017-05-09T04:04:29.321Z,56
2017-05-09T04:05:39.393Z,64
2017-05-09T04:06:49.740Z,76
2017-05-09T04:08:00.157Z,104
2017-05-09T04:09:10.531Z,96
2017-05-09T04:10:20.561Z,76
2017-05-09T04:11:30.910Z,60
2017-05-09T04:12:41.273Z,64
2017-05-09T04:13:51.607Z,68
2017-05-09T04:15:01.636Z,76
2017-05-09T04:16:11.981Z,96
2017-05-09T04:17:22.011Z,116
2017-05-09T04:18:32.351Z,132
2017-05-09T04:19:42.376Z,156
2017-05-09T04:20:52.724Z,180
2017-05-09T04:22:03.066Z,196
2017-05-09T04:23:13.408Z,208
2017-05-09T04:24:23.444Z,224
2017-05-09T04:25:33.801Z,220
2017-05-09T04:26:44.152Z,200
2017-05-09T04:27:54.534Z,184
2017-05-09T04:29:04.922Z,180
2017-05-09T04:30:15.007Z,192
2017-05-09T04:31:25.353Z,220
2017-05-09T04:32:35.391Z,224
2017-05-09T04:33:45.432Z,240
2017-05-09T04:34:55.775Z,276
2017-05-09T04:36:05.805Z,308
2017-05-09T04:37:16.158Z,320
2017-05-09T04:38:26.507Z,300
2017-05-09T04:39:36.527Z,280
2017-05-09T04:40:46.883Z,272
2017-05-09T04:41:56.916Z,284
2017-05-09T04:43:07.301Z,316
2017-05-09T04:44:17.632Z,376
2017-05-09T04:45:27.653Z,408
2017-05-09T04:46:37.987Z,432
2017-05-09T04:47:48.349Z,460
2017-05-09T04:48:58.707Z,472
2017-05-09T04:50:09.058Z,492
2017-05-09T04:51:19.076Z,512
2017-05-09T04:52:28.805Z,532
2017-05-09T04:53:39.151Z,576
2017-05-09T04:54:49.179Z,668
2017-05-09T04:55:59.525Z,744
2017-05-09T04:57:09.889Z,764
2017-05-09T04:58:19.923Z,716
2017-05-09T04:59:30.285Z,640
2017-05-09T05:00:40.638Z,608
2017-05-09T05:01:50.664Z,552
2017-05-09T05:03:00.397Z,496
2017-05-09T05:04:10.743Z,544
2017-05-09T05:05:21.086Z,620
2017-05-09T05:06:31.417Z,672
2017-05-09T05:07:41.821Z,692
2017-05-09T05:08:52.175Z,688
2017-05-09T05:10:01.893Z,660
2017-05-09T05:11:12.239Z,616
2017-05-09T05:12:22.646Z,584
2017-05-09T05:13:32.992Z,616
2017-05-09T05:14:43.335Z,692
2017-05-09T05:15:53.690Z,768
2017-05-09T05:17:04.053Z,856
2017-05-09T05:18:14.411Z,1004
2017-05-09T05:19:24.784Z,1132
2017-05-09T05:20:35.125Z,1136
2017-05-09T05:21:45.470Z,1120
2017-05-09T05:22:55.493Z,1076
2017-05-09T05:24:05.228Z,1032
2017-05-09T05:25:15.564Z,984
2017-05-09T05:26:25.900Z,944
2017-05-09T05:27:36.221Z,948
2017-05-09T05:28:46.565Z,984
2017-05-09T05:29:56.916Z,1068
2017-05-09T05:31:07.257Z,1200
2017-05-09T05:32:17.600Z,1220
2017-05-09T05:33:27.627Z,1312
2017-05-09T05:34:37.967Z,1336
2017-05-09T05:35:48.309Z,1252
2017-05-09T05:36:58.647Z,1188
2017-05-09T05:38:08.995Z,1184
2017-05-09T05:39:19.332Z,1220
2017-05-09T05:40:29.697Z,1336
2017-05-09T05:41:40.061Z,1488
2017-05-09T05:42:50.389Z,1748
2017-05-09T05:44:00.742Z,2108
2017-05-09T05:45:11.088Z,2524
2017-05-09T05:46:21.432Z,2804
2017-05-09T05:47:31.782Z,2792
2017-05-09T05:48:42.119Z,2836
2017-05-09T05:49:52.152Z,2504
2017-05-09T05:51:02.171Z,1800
2017-05-09T05:52:12.515Z,1080
2017-05-09T05:53:22.247Z,736
2017-05-09T05:54:32.592Z,648
2017-05-09T05:55:42.951Z,576
2017-05-09T05:56:53.331Z,544
2017-05-09T05:58:03.683Z,696
2017-05-09T05:59:14.016Z,852
2017-05-09T06:00:24.046Z,1016
2017-05-09T06:01:34.054Z,1204
2017-05-09T06:02:44.091Z,1336
2017-05-09T06:03:54.124Z,1516
2017-05-09T06:05:04.179Z,1692
2017-05-09T06:06:14.536Z,1868
2017-05-09T06:07:24.878Z,1976
2017-05-09T06:08:34.900Z,1952
2017-05-09T06:09:45.255Z,1844
2017-05-09T06:10:55.603Z,1884
2017-05-09T06:12:05.955Z,2092
2017-05-09T06:13:16.304Z,2360
2017-05-09T06:14:26.343Z,2668
2017-05-09T06:15:36.059Z,2980
2017-05-09T06:16:46.071Z,3328
2017-05-09T06:17:56.098Z,3596
2017-05-09T06:19:06.140Z,3868
2017-05-09T06:20:16.478Z,4084
2017-05-09T06:21:26.827Z,4248
2017-05-09T06:22:36.859Z,4516
2017-05-09T06:23:47.237Z,4016
2017-05-09T06:24:57.606Z,3548
2017-05-09T06:26:08.003Z,3544
2017-05-09T06:27:18.346Z,3768
2017-05-09T06:28:28.712Z,3780
2017-05-09T06:29:38.744Z,3612
2017-05-09T06:30:48.807Z,3832
2017-05-09T06:31:59.156Z,3972
2017-05-09T06:38:31.458Z,5628
2017-05-09T06:39:41.185Z,5896
2017-05-09T06:40:51.569Z,5192
2017-05-09T06:42:01.621Z,4548
2017-05-09T06:43:11.974Z,4272
2017-05-09T06:44:22.014Z,3984
2017-05-09T06:45:32.349Z,3448
2017-05-09T06:46:42.706Z,3296
2017-05-09T06:47:53.058Z,3268
2017-05-09T06:49:03.095Z,3228
2017-05-09T06:50:13.441Z,2972
2017-05-09T06:51:23.473Z,2944
2017-05-09T06:52:33.833Z,2788
2017-05-09T06:53:44.170Z,2624
2017-05-09T06:54:54.514Z,2452
2017-05-09T06:56:04.560Z,2368
2017-05-09T06:57:14.909Z,2472
2017-05-09T06:58:25.263Z,2848
2017-05-09T06:59:35.625Z,3456
2017-05-09T07:00:45.976Z,3520
2017-05-09T07:01:56.019Z,3640
2017-05-09T07:03:06.368Z,3664
2017-05-09T07:04:16.729Z,3560
2017-05-09T07:05:27.069Z,3424
2017-05-09T07:06:37.416Z,3212
2017-05-09T07:07:47.498Z,2940
2017-05-09T07:08:57.542Z,2812
2017-05-09T07:10:07.893Z,2572
2017-05-09T07:11:17.932Z,2504
2017-05-09T07:12:27.970Z,2556
2017-05-09T07:13:38.008Z,2288
2017-05-09T07:14:48.068Z,2256
2017-05-09T07:15:58.426Z,2148
2017-05-09T07:17:08.476Z,2048
2017-05-09T07:18:18.188Z,1952
2017-05-09T07:19:28.562Z,1932
2017-05-09T07:20:38.893Z,1864
2017-05-09T07:21:48.938Z,2080
2017-05-09T07:22:59.295Z,2040
2017-05-09T07:24:09.651Z,1796
2017-05-09T07:25:20.061Z,1804
2017-05-09T07:26:30.406Z,1772
2017-05-09T07:27:40.759Z,1724
2017-05-09T07:28:51.108Z,1772
2017-05-09T07:30:01.160Z,1828
2017-05-09T07:31:11.186Z,1752
2017-05-09T07:32:20.942Z,1580
2017-05-09T07:33:30.974Z,1456
2017-05-09T07:34:40.996Z,1440
2017-05-09T07:35:51.346Z,1392
2017-05-09T07:37:01.422Z,1368
2017-05-09T07:38:11.469Z,1372
2017-05-09T07:39:21.521Z,1432
2017-05-09T07:40:31.540Z,1540
2017-05-09T07:41:41.580Z,1672
2017-05-09T07:42:51.924Z,1660
2017-05-09T07:44:02.263Z,1592
2017-05-09T07:45:12.604Z,1792
2017-05-09T07:46:22.970Z,2228
2017-05-09T07:47:32.701Z,2512
2017-05-09T07:48:42.736Z,2648
2017-05-09T07:49:53.109Z,2668
2017-05-09T07:51:03.157Z,2712
2017-05-09T07:52:13.500Z,2612
2017-05-09T07:53:23.836Z,2264
2017-05-09T07:54:34.181Z,2204
2017-05-09T07:55:44.214Z,2036
2017-05-09T07:56:54.571Z,1812
2017-05-09T07:58:04.606Z,1784
2017-05-09T07:59:14.964Z,1740
2017-05-09T08:00:25.041Z,1952
2017-05-09T08:01:35.388Z,2192
2017-05-09T08:02:45.734Z,2716
2017-05-09T08:03:56.077Z,3152
2017-05-09T08:05:06.438Z,3028
2017-05-09T08:06:16.472Z,2492
2017-05-09T08:07:26.850Z,2192
2017-05-09T08:08:37.196Z,2176
2017-05-09T08:09:47.541Z,2032
2017-05-09T08:10:57.898Z,2040
2017-05-09T08:12:07.978Z,2024
2017-05-09T08:13:18.018Z,1992
2017-05-09T08:14:28.063Z,1972
2017-05-09T08:15:38.086Z,1980
2017-05-09T08:16:48.120Z,2192
2017-05-09T08:17:58.462Z,2296
2017-05-09T08:19:08.808Z,2268
2017-05-09T08:20:18.844Z,2172
2017-05-09T08:21:28.256Z,2344
2017-05-09T08:22:38.303Z,2588
2017-05-09T08:23:48.666Z,2628
2017-05-09T08:24:58.742Z,2704
2017-05-09T08:26:09.078Z,2960
2017-05-09T08:27:19.120Z,3252
2017-05-09T08:28:29.165Z,3264
2017-05-09T08:29:39.208Z,3136
2017-05-09T08:30:49.555Z,3180
2017-05-09T08:31:59.906Z,3240
2017-05-09T08:33:09.955Z,3364
2017-05-09T08:34:19.989Z,3492
2017-05-09T08:35:30.079Z,3872
2017-05-09T08:36:40.418Z,4404
2017-05-09T08:37:50.751Z,5080
2017-05-09T08:39:01.089Z,5496
2017-05-09T08:40:11.470Z,5820
2017-05-09T08:41:21.816Z,6120
2017-05-09T08:42:32.196Z,6256
2017-05-09T08:43:42.554Z,6780
2017-05-09T08:44:52.938Z,8192
2017-05-09T08:46:03.287Z,8020
2017-05-09T08:47:13.669Z,7072
2017-05-09T08:48:24.013Z,6480
2017-05-09T08:49:34.044Z,6584
2017-05-09T08:50:44.087Z,6608
2017-05-09T08:51:54.451Z,6296
2017-05-09T08:53:04.798Z,6080
2017-05-09T08:54:15.144Z,6344
2017-05-09T08:55:25.491Z,6788
2017-05-09T08:56:35.833Z,6772
2017-05-09T08:57:45.883Z,6648
2017-05-09T08:58:56.228Z,6352
2017-05-09T09:00:06.263Z,5776
2017-05-09T09:01:16.615Z,4880
2017-05-09T09:02:26.667Z,4164
2017-05-09T09:03:36.709Z,4128
2017-05-09T09:04:47.307Z,4644
2017-05-09T09:05:57.656Z,5244
2017-05-09T09:07:07.685Z,5328
2017-05-09T09:08:17.732Z,4960
2017-05-09T09:09:28.076Z,4520
2017-05-09T09:10:38.443Z,4256
2017-05-09T09:11:48.784Z,4216
2017-05-09T09:12:58.817Z,3736
2017-05-09T09:14:09.155Z,3344
2017-05-09T09:15:19.188Z,3136
2017-05-09T09:16:29.540Z,3032
2017-05-09T09:17:39.914Z,2924
2017-05-09T09:18:50.259Z,2832
2017-05-09T09:20:00.652Z,2772
2017-05-09T09:21:10.694Z,2900
2017-05-09T09:22:20.733Z,2916
2017-05-09T09:23:31.101Z,2796
2017-05-09T09:24:41.151Z,2700
2017-05-09T09:25:50.895Z,2636
2017-05-09T09:27:01.269Z,2692
2017-05-09T09:28:11.621Z,2416
2017-05-09T09:29:21.971Z,2268
2017-05-09T09:30:32.315Z,2404
2017-05-09T09:31:42.357Z,2236
2017-05-09T09:32:52.706Z,2044
2017-05-09T09:34:03.076Z,2008
2017-05-09T09:35:13.437Z,2188
2017-05-09T09:36:23.792Z,2420
2017-05-09T09:37:33.854Z,2416
2017-05-09T09:38:44.192Z,2532
2017-05-09T09:39:54.283Z,2768
2017-05-09T09:41:04.326Z,3104
2017-05-09T09:42:14.381Z,3096
2017-05-09T09:43:24.420Z,2892
2017-05-09T09:44:34.783Z,2692
2017-05-09T09:45:45.146Z,2580
2017-05-09T09:46:55.195Z,2376
2017-05-09T09:48:05.600Z,2260
2017-05-09T09:49:15.945Z,2240
2017-05-09T09:50:25.982Z,2180
2017-05-09T09:51:36.339Z,2044
2017-05-09T09:52:46.677Z,2012
2017-05-09T09:53:56.727Z,1956
2017-05-09T09:55:06.770Z,1900
2017-05-09T09:56:17.127Z,1856
2017-05-09T09:57:27.503Z,1796
2017-05-09T09:58:37.873Z,1848
2017-05-09T09:59:47.592Z,1948
2017-05-09T10:00:57.639Z,1936
2017-05-09T10:02:07.995Z,1828
2017-05-09T10:03:18.361Z,1788
2017-05-09T10:04:28.715Z,1892
2017-05-09T10:05:39.081Z,1916
2017-05-09T10:06:49.143Z,1940
2017-05-09T10:07:59.182Z,2100
2017-05-09T10:09:09.525Z,2296
2017-05-09T10:10:19.579Z,2408
2017-05-09T10:11:29.647Z,2460
2017-05-09T10:12:39.691Z,2552
2017-05-09T10:13:49.726Z,2872
2017-05-09T10:14:59.765Z,3120
2017-05-09T10:16:09.800Z,3356
2017-05-09T10:17:19.827Z,3600
2017-05-09T10:18:30.185Z,3800
2017-05-09T10:19:40.552Z,3908
2017-05-09T10:20:50.593Z,4016
2017-05-09T10:22:00.631Z,4172
2017-05-09T10:23:11.006Z,4328
2017-05-09T10:24:20.734Z,4492
2017-05-09T10:25:30.470Z,4660
2017-05-09T10:26:40.842Z,4860
2017-05-09T10:27:51.221Z,5128
2017-05-09T10:29:00.972Z,5420
2017-05-09T10:30:11.323Z,5740
2017-05-09T10:31:21.689Z,6004
2017-05-09T10:32:31.759Z,6368
2017-05-09T10:33:42.135Z,6848
2017-05-09T10:34:52.170Z,7016
2017-05-09T10:36:02.232Z,6724
2017-05-09T10:37:12.265Z,6300
2017-05-09T10:38:22.633Z,5848
2017-05-09T10:39:32.986Z,5404
2017-05-09T10:40:43.369Z,5112
2017-05-09T10:41:53.735Z,5108
2017-05-09T10:43:03.780Z,5400
2017-05-09T10:44:13.806Z,5804
2017-05-09T10:45:24.198Z,5948
2017-05-09T10:46:34.537Z,5832
2017-05-09T10:47:44.882Z,5540
2017-05-09T10:48:55.232Z,5312
2017-05-09T10:50:05.268Z,5520
2017-05-09T10:51:15.302Z,6200
2017-05-09T10:52:25.650Z,7132
2017-05-09T10:53:36.001Z,8224
2017-05-09T10:54:46.042Z,8896
2017-05-09T10:55:56.110Z,9004
2017-05-09T10:57:06.141Z,8524
2017-05-09T10:58:15.237Z,7680
2017-05-09T10:59:25.615Z,6704
2017-05-09T11:00:35.972Z,5668
2017-05-09T11:01:46.311Z,4704
2017-05-09T11:02:56.671Z,4020
2017-05-09T11:04:07.032Z,3464
2017-05-09T11:05:16.759Z,2816
2017-05-09T11:06:27.101Z,2420
2017-05-09T11:07:36.528Z,2256
2017-05-09T11:08:46.878Z,2284
2017-05-09T11:09:57.237Z,2272
2017-05-09T11:11:07.573Z,2116
2017-05-09T11:12:17.600Z,1964
2017-05-09T11:13:27.334Z,1876
2017-05-09T11:14:37.667Z,1880
2017-05-09T11:15:48.030Z,1980
2017-05-09T11:16:57.761Z,2324
2017-05-09T11:18:07.785Z,2904
2017-05-09T11:19:18.153Z,3800
2017-05-09T11:20:28.508Z,4720
2017-05-09T11:21:38.847Z,6348
2017-05-09T11:22:49.210Z,8588
2017-05-09T11:23:59.575Z,10032
2017-05-09T11:25:09.611Z,10492
2017-05-09T11:26:19.955Z,9880
2017-05-09T11:27:30.338Z,8872
2017-05-09T11:28:40.379Z,7468
2017-05-09T11:29:50.110Z,6292
2017-05-09T11:31:00.161Z,5420
2017-05-09T11:32:10.582Z,4968
2017-05-09T11:33:20.961Z,4540
2017-05-09T11:34:31.322Z,4188
2017-05-09T11:35:41.369Z,3872
2017-05-09T11:36:51.719Z,3528
2017-05-09T11:38:02.077Z,3148
2017-05-09T11:39:12.468Z,2596
2017-05-09T11:40:22.826Z,2072
2017-05-09T11:41:32.567Z,1688
2017-05-09T11:42:42.904Z,1416
2017-05-09T11:43:53.269Z,1320
2017-05-09T11:45:03.607Z,1400
2017-05-09T11:46:14.005Z,1668
2017-05-09T11:47:24.342Z,2016
2017-05-09T11:48:34.378Z,2352
2017-05-09T11:49:44.738Z,2604
2017-05-09T11:50:55.104Z,2820
2017-05-09T11:52:05.443Z,3080
2017-05-09T11:53:15.485Z,3492
2017-05-09T11:54:25.839Z,4024
2017-05-09T11:55:35.874Z,4604
2017-05-09T11:56:46.251Z,5184
2017-05-09T11:57:56.002Z,5684
2017-05-09T11:59:06.369Z,6060
2017-05-09T12:00:16.116Z,6432
2017-05-09T12:01:26.179Z,7104
2017-05-09T12:02:36.541Z,7840
2017-05-09T12:03:46.581Z,8388
2017-05-09T12:04:56.952Z,8716
2017-05-09T12:06:07.310Z,8740
2017-05-09T12:07:17.682Z,8688
2017-05-09T12:08:28.049Z,8888
2017-05-09T12:09:38.404Z,9600
2017-05-09T12:10:48.441Z,10412
2017-05-09T12:11:58.779Z,10684
2017-05-09T12:13:09.131Z,9760
2017-05-09T12:14:19.210Z,9932
2017-05-09T12:15:29.557Z,13536
2017-05-09T12:16:39.274Z,10816
2017-05-09T12:17:49.651Z,10264
2017-05-09T12:18:59.374Z,11620
2017-05-09T12:20:09.125Z,10092
2017-05-09T12:21:19.506Z,13168
2017-05-09T12:22:29.865Z,11864
2017-05-09T12:23:40.208Z,8420
2017-05-09T12:24:49.933Z,7300
2017-05-09T12:26:00.318Z,6284
2017-05-09T12:27:10.071Z,5860
2017-05-09T12:28:20.134Z,5816
2017-05-09T12:29:29.882Z,6024
2017-05-09T12:30:40.242Z,6056
2017-05-09T12:31:50.601Z,5900
2017-05-09T12:33:00.630Z,5796
2017-05-09T12:34:10.996Z,5700
2017-05-09T12:35:21.046Z,5780
2017-05-09T12:36:31.415Z,5932
2017-05-09T12:37:41.777Z,6176
2017-05-09T12:38:52.190Z,6452
2017-05-09T12:40:02.223Z,6612
2017-05-09T12:41:11.944Z,6624
2017-05-09T12:42:21.990Z,6480
2017-05-09T12:43:32.025Z,5852
2017-05-09T12:44:42.374Z,5044
2017-05-09T12:45:52.737Z,4184
2017-05-09T12:47:03.101Z,3568
2017-05-09T12:48:13.449Z,3276
2017-05-09T12:49:23.810Z,3228
2017-05-09T12:50:34.199Z,3268
2017-05-09T12:51:44.232Z,3512
2017-05-09T12:52:54.015Z,3936
2017-05-09T12:54:04.385Z,4540
2017-05-09T12:55:14.741Z,5272
2017-05-09T12:56:24.466Z,6020
2017-05-09T12:57:34.831Z,6808
2017-05-09T12:58:44.876Z,7564
2017-05-09T12:59:57.599Z,8464
2017-05-09T13:01:09.072Z,9452
2017-05-09T13:02:19.442Z,10388
2017-05-09T13:03:29.269Z,11332
2017-05-09T13:04:39.880Z,11824
2017-05-09T13:05:50.250Z,11340
2017-05-09T13:07:00.292Z,10688
2017-05-09T13:08:10.661Z,11420
2017-05-09T13:09:21.308Z,10104
2017-05-09T13:10:31.709Z,8884
2017-05-09T13:11:42.070Z,9000
2017-05-09T13:12:52.103Z,6988
2017-05-09T13:14:02.141Z,6644
2017-05-09T13:15:12.503Z,6712
2017-05-09T13:16:22.844Z,7084
2017-05-09T13:17:33.199Z,7388
2017-05-09T13:18:43.290Z,7448
2017-05-09T13:19:53.643Z,7284
2017-05-09T13:21:03.670Z,7260
2017-05-09T13:22:13.395Z,7392
2017-05-09T13:23:23.752Z,7764
2017-05-09T13:24:34.150Z,7976
2017-05-09T13:25:44.498Z,8288
2017-05-09T13:26:54.863Z,8804
2017-05-09T13:28:05.219Z,8588
2017-05-09T13:29:15.569Z,8700
2017-05-09T13:30:25.606Z,9796
2017-05-09T13:31:35.652Z,8944
2017-05-09T13:32:46.009Z,9340
2017-05-09T13:33:56.364Z,10692
2017-05-09T13:35:06.764Z,10580
2017-05-09T13:36:16.842Z,10628
2017-05-09T13:37:26.897Z,10896
2017-05-09T13:38:37.240Z,9604
2017-05-09T13:39:47.288Z,9152
2017-05-09T13:40:57.697Z,8764
2017-05-09T13:42:08.049Z,9036
2017-05-09T13:43:18.407Z,9344
2017-05-09T13:44:28.437Z,8844
2017-05-09T13:45:38.782Z,8516
2017-05-09T13:46:49.143Z,8424
2017-05-09T13:47:59.499Z,8344
2017-05-09T13:49:09.847Z,8400
2017-05-09T13:50:20.192Z,8456
2017-05-09T13:51:30.233Z,8448
2017-05-09T13:52:40.336Z,8584
2017-05-09T13:53:50.692Z,8612
2017-05-09T13:55:01.052Z,8572
2017-05-09T13:56:11.412Z,8424
2017-05-09T13:57:21.458Z,8332
2017-05-09T13:58:31.810Z,7728
2017-05-09T13:59:41.865Z,7280
2017-05-09T14:00:51.893Z,7052
2017-05-09T14:02:02.242Z,7100
2017-05-09T14:03:12.608Z,7268
2017-05-09T14:04:22.659Z,7988
2017-05-09T14:05:33.048Z,8500
2017-05-09T14:06:43.092Z,8696
2017-05-09T14:07:53.458Z,8844
2017-05-09T14:09:03.821Z,9060
2017-05-09T14:10:14.206Z,9264
2017-05-09T14:11:24.546Z,9992
2017-05-09T14:12:34.915Z,10864
2017-05-09T14:13:45.287Z,10532
2017-05-09T14:14:55.588Z,10172
2017-05-09T14:16:05.947Z,10032
2017-05-09T14:17:16.313Z,9864
2017-05-09T14:18:26.674Z,9676
2017-05-09T14:19:36.764Z,9060
2017-05-09T14:20:47.132Z,9048
2017-05-09T14:21:57.190Z,8944
2017-05-09T14:23:07.554Z,8880
2017-05-09T14:24:18.004Z,8996
2017-05-09T14:25:28.369Z,8680
2017-05-09T14:26:38.401Z,8708
2017-05-09T14:27:48.473Z,8676
2017-05-09T14:28:58.503Z,8532
2017-05-09T14:30:08.864Z,8900
2017-05-09T14:31:19.232Z,8916
2017-05-09T14:32:29.273Z,9176
2017-05-09T14:33:39.665Z,9004
2017-05-09T14:34:50.033Z,8464
2017-05-09T14:35:59.793Z,8112
2017-05-09T14:37:09.846Z,7792
2017-05-09T14:38:19.888Z,7456
2017-05-09T14:39:30.261Z,7176
2017-05-09T14:40:40.621Z,7068
2017-05-09T14:41:50.668Z,6984
2017-05-09T14:43:00.757Z,6804
2017-05-09T14:44:11.115Z,6684
2017-05-09T14:45:21.502Z,6708
2017-05-09T14:46:31.875Z,6748
2017-05-09T14:47:42.257Z,6796
2017-05-09T14:48:52.636Z,6656
2017-05-09T14:50:03.085Z,6636
2017-05-09T14:51:13.496Z,6888
2017-05-09T14:52:23.875Z,6852
2017-05-09T14:53:34.270Z,6744
2017-05-09T14:54:44.678Z,6468
2017-05-09T14:55:55.086Z,6136
2017-05-09T14:57:05.482Z,5836
2017-05-09T14:58:15.879Z,5624
2017-05-09T14:59:26.335Z,5660
2017-05-09T15:00:36.392Z,5828
2017-05-09T15:01:46.746Z,5872
2017-05-09T15:02:56.786Z,5776
2017-05-09T15:04:06.844Z,5660
2017-05-09T15:05:16.893Z,5692
2017-05-09T15:06:26.961Z,5764
2017-05-09T15:07:37.338Z,5792
2017-05-09T15:08:47.379Z,5812
2017-05-09T15:09:57.763Z,5820
2017-05-09T15:11:08.121Z,5756
2017-05-09T15:12:18.482Z,5724
2017-05-09T15:13:28.831Z,5788
2017-05-09T15:14:38.883Z,5872
2017-05-09T15:15:48.618Z,6008
2017-05-09T15:16:58.664Z,6212
2017-05-09T15:18:08.421Z,6480
2017-05-09T15:19:18.846Z,6700
2017-05-09T15:20:28.895Z,6664
2017-05-09T15:21:39.273Z,6380
2017-05-09T15:22:49.328Z,6128
2017-05-09T15:23:59.693Z,6100
2017-05-09T15:25:10.052Z,5992
2017-05-09T15:26:20.400Z,5820
2017-05-09T15:27:30.771Z,5812
2017-05-09T15:28:41.134Z,5784
2017-05-09T15:29:51.519Z,5856
2017-05-09T15:31:01.872Z,6016
2017-05-09T15:32:11.938Z,6792
2017-05-09T15:33:22.022Z,6000
2017-05-09T15:34:32.381Z,5584
2017-05-09T15:35:42.121Z,5456
2017-05-09T15:36:52.492Z,5620
2017-05-09T15:38:02.862Z,5596
2017-05-09T15:39:13.221Z,5716
2017-05-09T15:40:23.600Z,6112
2017-05-09T15:41:33.957Z,6800
2017-05-09T15:42:44.335Z,7928
2017-05-09T15:43:54.685Z,7760
2017-05-09T15:45:04.739Z,7520
2017-05-09T15:46:14.474Z,7128
2017-05-09T15:47:24.842Z,4676
2017-05-09T15:48:35.212Z,4220
2017-05-09T15:49:45.278Z,4168
2017-05-09T15:50:55.326Z,4864
2017-05-09T15:52:05.683Z,4740
2017-05-09T15:53:15.729Z,4324
2017-05-09T15:54:26.097Z,4256
2017-05-09T15:55:36.492Z,4200
2017-05-09T15:56:46.863Z,4136
2017-05-09T15:57:57.249Z,4048
2017-05-09T15:59:07.292Z,3968
2017-05-09T16:00:17.652Z,3856
2017-05-09T16:01:28.026Z,3696
2017-05-09T16:02:38.380Z,3592
2017-05-09T16:03:48.729Z,3500
2017-05-09T16:04:58.777Z,3348
2017-05-09T16:06:09.138Z,3256
2017-05-09T16:07:19.501Z,3168
2017-05-09T16:08:29.857Z,3060
2017-05-09T16:09:40.228Z,2928
2017-05-09T16:10:50.598Z,2796
2017-05-09T16:12:00.994Z,2736
2017-05-09T16:13:11.420Z,2756
2017-05-09T16:14:21.767Z,2796
2017-05-09T16:15:31.896Z,2800
2017-05-09T16:16:42.276Z,2760
2017-05-09T16:17:52.681Z,2736
2017-05-09T16:19:03.054Z,2748
2017-05-09T16:20:13.460Z,2752
2017-05-09T16:21:23.832Z,2764
2017-05-09T16:22:34.223Z,2780
2017-05-09T16:23:44.587Z,2796
2017-05-09T16:24:54.953Z,2800
2017-05-09T16:26:05.343Z,2760
2017-05-09T16:27:15.383Z,2676
2017-05-09T16:28:25.755Z,2572
2017-05-09T16:29:36.132Z,2468
2017-05-09T16:30:46.527Z,2400
2017-05-09T16:31:56.580Z,2376